createdAt,value
2018-11-13T00:01:33.546Z,100303.47
2018-11-13T00:06:52.114Z,100330.70
2018-11-13T00:12:11.569Z,100329.50
2018-11-13T00:17:31.415Z,100320.91
2018-11-13T00:22:50.675Z,100323.36
2018-11-13T00:28:09.242Z,100324.02
2018-11-13T00:33:27.829Z,100312.96
2018-11-13T00:38:47.792Z,100291.30
2018-11-13T00:44:07.231Z,100289.59
2018-11-13T00:49:27.046Z,100274.94
2018-11-13T00:54:45.459Z,100261.86
2018-11-13T01:00:05.572Z,100262.51
2018-11-13T01:05:24.229Z,100265.39
2018-11-13T01:10:42.785Z,100256.67
2018-11-13T01:16:01.428Z,100277.22
2018-11-13T01:21:26.964Z,100295.66
2018-11-13T01:26:46.538Z,100300.26
2018-11-13T01:32:06.163Z,100312.24
2018-11-13T01:37:26.000Z,100329.31
2018-11-13T01:42:45.498Z,100326.83
2018-11-13T01:48:04.246Z,100335.64
2018-11-13T01:53:22.792Z,100328.09
2018-11-13T01:58:41.872Z,100317.60
2018-11-13T02:04:00.647Z,100341.03
2018-11-13T02:09:19.322Z,100347.61
2018-11-13T02:14:38.666Z,100345.02
2018-11-13T02:19:57.543Z,100321.20
2018-11-13T02:25:18.137Z,100301.23
2018-11-13T02:30:37.128Z,100338.17
2018-11-13T02:35:55.968Z,100341.84
2018-11-13T02:41:14.728Z,100324.55
2018-11-13T02:46:33.260Z,100314.50
2018-11-13T02:51:51.853Z,100309.78
2018-11-13T02:57:10.455Z,100295.89
2018-11-13T03:02:30.066Z,100301.64
2018-11-13T03:07:48.682Z,100322.80
2018-11-13T03:13:07.452Z,100310.42
2018-11-13T03:18:26.042Z,100331.59
2018-11-13T03:23:44.946Z,100334.09
2018-11-13T03:29:04.201Z,100336.50
2018-11-13T03:34:22.751Z,100320.77
2018-11-13T03:39:41.524Z,100340.53
2018-11-13T03:45:00.067Z,100361.63
2018-11-13T03:50:21.706Z,100372.28
2018-11-13T03:55:40.295Z,100366.37
2018-11-13T04:00:58.890Z,100360.62
2018-11-13T04:06:17.824Z,100363.55
2018-11-13T04:11:37.099Z,100358.91
2018-11-13T04:16:55.669Z,100371.66
2018-11-13T04:22:14.356Z,100376.14
2018-11-13T04:27:32.963Z,100374.06
2018-11-13T04:32:51.604Z,100347.05
2018-11-13T04:38:10.767Z,100355.45
2018-11-13T04:43:29.324Z,100360.09
2018-11-13T04:48:47.948Z,100361.88
2018-11-13T04:54:06.704Z,100368.50
2018-11-13T04:59:25.339Z,100383.16
2018-11-13T05:04:43.903Z,100373.02
2018-11-13T05:10:03.743Z,100391.05
2018-11-13T05:15:22.985Z,100386.47
2018-11-13T05:20:41.544Z,100377.62
2018-11-13T05:26:00.121Z,100407.11
2018-11-13T05:31:18.824Z,100407.36
2018-11-13T05:36:38.221Z,100401.88
2018-11-13T05:41:56.837Z,100429.08
2018-11-13T05:47:16.571Z,100412.66
2018-11-13T05:52:35.798Z,100414.28
2018-11-13T05:57:54.544Z,100422.80
2018-11-13T06:03:13.151Z,100428.25
2018-11-13T06:08:31.767Z,100446.39
2018-11-13T06:13:50.284Z,100438.20
2018-11-13T06:19:11.699Z,100437.63
2018-11-13T06:24:31.586Z,100448.36
2018-11-13T06:29:50.239Z,100454.16
2018-11-13T06:35:10.378Z,100457.19
2018-11-13T06:40:29.798Z,100461.98
2018-11-13T06:45:49.135Z,100470.07
2018-11-13T06:51:07.656Z,100476.89
2018-11-13T06:56:27.338Z,100495.86
2018-11-13T07:01:45.862Z,100499.34
2018-11-13T07:07:04.584Z,100507.38
2018-11-13T07:12:23.889Z,100520.40
2018-11-13T07:17:44.272Z,100527.45
2018-11-13T07:23:03.412Z,100531.10
2018-11-13T07:28:28.412Z,100544.33
2018-11-13T07:33:46.977Z,100557.17
2018-11-13T07:39:08.822Z,100559.02
2018-11-13T07:44:27.859Z,100564.03
2018-11-13T07:49:46.407Z,100572.95
2018-11-13T07:55:06.404Z,100565.94
2018-11-13T08:00:25.809Z,100580.70
2018-11-13T08:05:44.486Z,100582.77
2018-11-13T08:11:04.239Z,100594.42
2018-11-13T08:16:23.540Z,100602.23
2018-11-13T08:21:42.684Z,100594.17
2018-11-13T08:27:02.069Z,100596.55
2018-11-13T08:32:21.279Z,100590.58
2018-11-13T08:37:39.834Z,100590.83
2018-11-13T08:42:58.368Z,100603.22
2018-11-13T08:48:16.959Z,100604.26
2018-11-13T08:53:35.636Z,100606.71
2018-11-13T08:58:54.326Z,100612.78
2018-11-13T09:04:12.825Z,100616.96
2018-11-13T09:09:31.403Z,100629.64
2018-11-13T09:14:50.014Z,100629.02
2018-11-13T09:20:10.909Z,100647.63
2018-11-13T09:25:29.607Z,100650.45
2018-11-13T09:30:49.027Z,100656.66
2018-11-13T09:36:07.524Z,100656.95
2018-11-13T09:41:26.053Z,100654.56
2018-11-13T09:46:44.596Z,100652.52
2018-11-13T09:52:03.151Z,100666.14
2018-11-13T09:57:21.715Z,100665.14
2018-11-13T10:02:40.991Z,100663.48
2018-11-13T10:07:59.454Z,100662.77
2018-11-13T10:13:18.515Z,100670.75
2018-11-13T10:18:37.102Z,100682.81
2018-11-13T10:23:55.688Z,100677.94
2018-11-13T10:29:14.331Z,100682.54
2018-11-13T10:34:34.086Z,100657.35
2018-11-13T10:39:52.862Z,100678.18
2018-11-13T10:45:16.526Z,100673.10
2018-11-13T10:50:35.059Z,100657.16
2018-11-13T10:55:53.748Z,100667.36
2018-11-13T11:01:17.515Z,100669.61
2018-11-13T11:06:36.831Z,100664.10
2018-11-13T11:11:55.443Z,100669.42
2018-11-13T11:17:14.414Z,100671.31
2018-11-13T11:22:34.527Z,100696.03
2018-11-13T11:27:53.767Z,100694.25
2018-11-13T11:33:12.972Z,100706.16
2018-11-13T11:38:33.218Z,100704.44
2018-11-13T11:43:52.064Z,100715.23
2018-11-13T11:49:10.624Z,100707.73
2018-11-13T11:54:29.248Z,100719.87
2018-11-13T11:59:48.553Z,100723.24
2018-11-13T12:05:08.268Z,100736.80
2018-11-13T12:10:26.904Z,100728.78
2018-11-13T12:15:46.204Z,100731.89
2018-11-13T12:21:04.895Z,100736.00
2018-11-13T12:26:23.563Z,100747.91
2018-11-13T12:31:42.173Z,100746.79
2018-11-13T12:37:01.056Z,100759.44
2018-11-13T12:42:19.650Z,100760.38
2018-11-13T12:47:38.344Z,100774.95
2018-11-13T12:52:57.488Z,100782.61
2018-11-13T12:58:16.939Z,100793.34
2018-11-13T13:03:35.690Z,100792.02
2018-11-13T13:08:54.266Z,100800.69
2018-11-13T13:14:13.950Z,100800.13
2018-11-13T13:19:32.971Z,100808.30
2018-11-13T13:24:52.447Z,100804.06
2018-11-13T13:30:15.258Z,100812.50
2018-11-13T13:35:44.554Z,100818.59
2018-11-13T13:41:04.492Z,100824.92
2018-11-13T13:46:24.478Z,100825.69
2018-11-13T13:51:43.075Z,100832.63
2018-11-13T13:57:01.845Z,100844.17
2018-11-13T14:02:21.093Z,100848.98
2018-11-13T14:07:39.993Z,100854.70
2018-11-13T14:12:58.715Z,100864.63
2018-11-13T14:18:17.310Z,100865.45
2018-11-13T14:23:35.962Z,100882.62
2018-11-13T14:28:54.590Z,100881.84
2018-11-13T14:34:13.249Z,100892.29
2018-11-13T14:39:31.898Z,100902.82
2018-11-13T14:44:50.538Z,100907.52
2018-11-13T14:50:11.766Z,100922.82
2018-11-13T14:55:34.175Z,100936.78
2018-11-13T15:00:52.764Z,100944.02
2018-11-13T15:06:11.432Z,100950.88
2018-11-13T15:11:29.979Z,100956.56
2018-11-13T15:16:48.528Z,100968.44
2018-11-13T15:22:07.680Z,100978.55
2018-11-13T15:27:26.606Z,100981.61
2018-11-13T15:32:46.793Z,100988.82
2018-11-13T15:38:05.975Z,100998.39
2018-11-13T15:43:24.570Z,101004.07
2018-11-13T15:48:43.337Z,101009.09
2018-11-13T15:54:01.972Z,101009.48
2018-11-13T15:59:20.744Z,101020.36
2018-11-13T16:04:39.317Z,101026.28
2018-11-13T16:10:00.507Z,101043.23
2018-11-13T16:15:20.439Z,101052.53
2018-11-13T16:20:38.958Z,101056.42
2018-11-13T16:25:57.494Z,101066.41
2018-11-13T16:31:16.151Z,101067.97
2018-11-13T16:36:34.842Z,101071.97
2018-11-13T16:41:53.239Z,101079.81
2018-11-13T16:47:11.811Z,101089.12
2018-11-13T16:52:30.432Z,101089.20
2018-11-13T16:57:50.531Z,101094.31
2018-11-13T17:03:10.046Z,101105.46
2018-11-13T17:08:28.760Z,101104.65
2018-11-13T17:13:47.425Z,101108.66
2018-11-13T17:19:06.041Z,101115.78
2018-11-13T17:24:25.113Z,101110.77
2018-11-13T17:29:43.685Z,101114.45
2018-11-13T17:35:02.224Z,101123.26
2018-11-13T17:40:25.043Z,101126.59
2018-11-13T17:45:43.594Z,101129.73
2018-11-13T17:51:02.134Z,101129.91
2018-11-13T17:56:20.810Z,101131.89
2018-11-13T18:01:40.808Z,101137.22
2018-11-13T18:06:59.607Z,101132.73
2018-11-13T18:12:18.640Z,101133.73
2018-11-13T18:17:37.222Z,101143.98
2018-11-13T18:22:55.784Z,101151.78
2018-11-13T18:28:14.425Z,101151.28
2018-11-13T18:33:33.343Z,101165.21
2018-11-13T18:38:51.985Z,101167.19
2018-11-13T18:44:10.374Z,101171.16
2018-11-13T18:49:29.939Z,101180.09
2018-11-13T18:54:48.679Z,101186.04
2018-11-13T19:00:10.153Z,101187.05
2018-11-13T19:05:29.542Z,101197.31
2018-11-13T19:10:49.186Z,101203.76
2018-11-13T19:16:09.531Z,101204.60
2018-11-13T19:21:28.155Z,101207.43
2018-11-13T19:26:46.814Z,101209.56
2018-11-13T19:32:05.483Z,101206.42
2018-11-13T19:37:24.193Z,101204.91
2018-11-13T19:42:43.513Z,101212.84
2018-11-13T19:48:02.882Z,101224.45
2018-11-13T19:53:21.459Z,101234.72
2018-11-13T19:58:40.013Z,101230.27
2018-11-13T20:03:58.560Z,101226.80
2018-11-13T20:09:17.742Z,101230.77
2018-11-13T20:14:38.345Z,101239.53
2018-11-13T20:19:56.894Z,101238.33
2018-11-13T20:25:16.764Z,101246.77
2018-11-13T20:30:36.693Z,101253.89
2018-11-13T20:35:56.848Z,101250.72
2018-11-13T20:41:15.367Z,101253.52
2018-11-13T20:46:34.222Z,101256.17
2018-11-13T20:51:53.290Z,101263.75
2018-11-13T20:57:11.812Z,101265.02
2018-11-13T21:02:30.363Z,101270.13
2018-11-13T21:07:49.618Z,101267.97
2018-11-13T21:13:09.055Z,101266.91
2018-11-13T21:18:27.588Z,101269.67
2018-11-13T21:23:46.214Z,101268.32
2018-11-13T21:29:04.766Z,101272.80
2018-11-13T21:34:23.348Z,101279.70
2018-11-13T21:39:42.560Z,101291.09
2018-11-13T21:45:01.596Z,101283.99
2018-11-13T21:50:21.570Z,101282.67
2018-11-13T21:55:40.641Z,101290.30
2018-11-13T22:00:59.879Z,101287.61
2018-11-13T22:06:18.487Z,101286.95
2018-11-13T22:11:37.056Z,101290.58
2018-11-13T22:16:55.682Z,101296.91
2018-11-13T22:22:14.186Z,101298.09
2018-11-13T22:27:32.807Z,101297.95
2018-11-13T22:32:52.241Z,101313.27
2018-11-13T22:38:11.439Z,101307.03
2018-11-13T22:43:30.032Z,101309.84
2018-11-13T22:48:48.607Z,101310.38
2018-11-13T22:54:07.122Z,101314.26
2018-11-13T22:59:25.762Z,101313.20
2018-11-13T23:04:44.280Z,101306.81
2018-11-13T23:10:02.882Z,101315.75
2018-11-13T23:15:22.326Z,101320.52
2018-11-13T23:20:41.967Z,101321.18
2018-11-13T23:26:00.785Z,101322.16
2018-11-13T23:31:19.351Z,101329.56
2018-11-13T23:36:37.882Z,101330.52
2018-11-13T23:41:57.724Z,101338.28
2018-11-13T23:47:17.595Z,101335.27
2018-11-13T23:52:35.689Z,101334.26
2018-11-13T23:57:54.177Z,101335.05
